Time;durP1;ratioP1;P1;durP2;ratioP2;P2;SDS_P1;SDS_P2;PMS_P1;PMS_P2;Temp;Humidity;BMP_temperature;BMP_pressure;BME280_temperature;BME280_humidity;BME280_pressure;Samples;Min_cycle;Max_cycle;Signal;HPM_P1;HPM_P2
2023/06/01 00:02:50;;;;;;;;;;;;;;;21.31;50.41;100577.91;5382279;32;33931;-77
2023/06/01 00:05:53;;;;;;;;;;;;;;;22.20;48.10;100576.78;5382743;32;33674;-74
2023/06/01 00:08:55;;;;;;;;;;;;;;;22.18;47.94;100581.41;5381036;32;33105;-73
2023/06/01 00:11:57;;;;;;;;;;;;;;;21.05;50.79;100583.47;5387973;32;34216;-74
2023/06/01 00:14:59;;;;;;;;;;;;;;;20.78;51.89;100573.16;5365713;32;34463;-74
2023/06/01 00:18:01;;;;;;;;;;;;;;;21.45;50.51;100574.97;5385243;32;33645;-74
2023/06/01 00:21:03;;;;;;;;;;;;;;;21.24;50.68;100574.84;5371281;32;33723;-74
2023/06/01 00:24:05;;;;;;;;;;;;;;;21.30;50.48;100573.53;5368820;32;34624;-77
2023/06/01 00:27:07;;;;;;;;;;;;;;;21.32;50.16;100574.28;5390334;32;33496;-74
2023/06/01 00:30:10;;;;;;;;;;;;;;;20.93;51.81;100570.25;5381276;32;32749;-76
2023/06/01 00:33:12;;;;;;;;;;;;;;;20.95;51.83;100568.31;5391286;32;44774;-77
2023/06/01 00:36:14;;;;;;;;;;;;;;;21.43;50.37;100568.87;5366587;32;33503;-76
2023/06/01 00:39:16;;;;;;;;;;;;;;;20.11;54.08;100569.50;5381485;32;33766;-74
2023/06/01 00:42:18;;;;;;;;;;;;;;;21.00;51.36;100574.16;5385385;32;33874;-76
2023/06/01 00:45:21;;;;;;;;;;;;;;;20.04;54.60;100574.47;5367315;32;34459;-75
2023/06/01 00:48:23;;;;;;;;;;;;;;;20.55;52.87;100566.97;5394710;32;33077;-76
2023/06/01 00:51:25;;;;;;;;;;;;;;;19.72;55.17;100563.53;5380473;32;33862;-72
2023/06/01 00:54:27;;;;;;;;;;;;;;;19.89;54.68;100565.78;5375368;32;33233;-74
2023/06/01 00:57:29;;;;;;;;;;;;;;;20.22;53.43;100562.37;5323053;32;933431;-77
2023/06/01 01:00:32;;;;;;;;;;;;;;;20.54;52.15;100556.38;5361297;32;32924;-73
2023/06/01 01:03:38;;;;;;;;;;;;;;;20.07;52.95;100566.22;5373170;32;33327;-77
2023/06/01 01:07:00;;;;;;;;;;;;;;;20.34;52.36;100563.25;5379903;32;36016;-75
2023/06/01 01:10:23;;;;;;;;;;;;;;;19.78;53.33;100565.75;5387095;32;33950;-75
2023/06/01 01:13:25;;;;;;;;;;;;;;;19.76;53.56;100562.31;5364167;32;34853;-76
2023/06/01 01:16:30;;;;;;;;;;;;;;;19.68;53.49;100557.56;5377016;32;33923;-76
2023/06/01 01:19:44;;;;;;;;;;;;;;;19.59;53.58;100560.09;5377514;32;36177;-76
2023/06/01 01:22:56;;;;;;;;;;;;;;;19.80;52.96;100562.97;5386233;32;45110;-76
2023/06/01 01:25:58;;;;;;;;;;;;;;;19.61;53.26;100564.31;5390188;32;34128;-77
2023/06/01 01:29:01;;;;;;;;;;;;;;;19.66;53.33;100558.66;5367801;32;34438;-77
2023/06/01 01:32:03;;;;;;;;;;;;;;;19.38;54.06;100555.31;5387405;32;32649;-73
2023/06/01 01:35:06;;;;;;;;;;;;;;;19.09;55.32;100567.25;5383354;32;33930;-76
2023/06/01 01:38:08;;;;;;;;;;;;;;;19.13;55.76;100561.59;5380020;32;33513;-77
2023/06/01 01:41:10;;;;;;;;;;;;;;;20.54;51.55;100564.41;5386999;32;44913;-72
2023/06/01 01:44:14;;;;;;;;;;;;;;;19.22;55.12;100565.38;5380975;32;34463;-77
2023/06/01 01:47:20;;;;;;;;;;;;;;;18.89;56.62;100574.00;5387224;32;34834;-74
2023/06/01 01:50:22;;;;;;;;;;;;;;;19.06;56.13;100572.78;5381495;32;31489;-74
2023/06/01 01:53:25;;;;;;;;;;;;;;;19.53;54.93;100556.00;5385109;32;35402;-77
2023/06/01 01:56:27;;;;;;;;;;;;;;;20.08;53.17;100556.38;5385164;32;32860;-73
2023/06/01 01:59:29;;;;;;;;;;;;;;;19.86;53.11;100565.16;5374848;32;33880;-76
2023/06/01 02:02:31;;;;;;;;;;;;;;;19.75;53.41;100561.47;5387443;32;33715;-73
2023/06/01 02:05:33;;;;;;;;;;;;;;;19.61;54.04;100560.81;5381438;32;33747;-74
2023/06/01 02:08:35;;;;;;;;;;;;;;;18.80;56.06;100563.97;5375259;32;33841;-76
2023/06/01 02:11:37;;;;;;;;;;;;;;;19.24;54.49;100555.47;5380619;32;33786;-76
2023/06/01 02:14:39;;;;;;;;;;;;;;;19.75;52.93;100558.81;5382568;32;32983;-76
2023/06/01 02:17:42;;;;;;;;;;;;;;;18.76;55.52;100563.34;5384345;32;45910;-76
2023/06/01 02:20:47;;;;;;;;;;;;;;;18.70;55.87;100554.94;5381937;32;33507;-77
2023/06/01 02:23:49;;;;;;;;;;;;;;;18.90;55.09;100554.38;5378481;32;32933;-74
2023/06/01 02:26:53;;;;;;;;;;;;;;;19.12;54.46;100543.03;5384306;32;33568;-74
2023/06/01 02:29:55;;;;;;;;;;;;;;;19.45;53.68;100540.59;5375088;32;33626;-77
2023/06/01 02:32:58;;;;;;;;;;;;;;;18.92;54.88;100547.12;5366092;32;35288;-77
2023/06/01 02:36:00;;;;;;;;;;;;;;;18.71;55.92;100543.31;5367952;32;33896;-73
2023/06/01 02:39:02;;;;;;;;;;;;;;;18.38;56.97;100542.88;5366630;32;35657;-72
2023/06/01 02:42:05;;;;;;;;;;;;;;;18.16;57.64;100547.94;5378427;32;34151;-73
2023/06/01 02:45:07;;;;;;;;;;;;;;;18.36;56.91;100538.63;5386356;32;33696;-76
2023/06/01 02:48:10;;;;;;;;;;;;;;;18.26;57.67;100533.06;5378641;32;33774;-77
2023/06/01 02:51:13;;;;;;;;;;;;;;;18.24;57.38;100536.81;5373945;32;43283;-77
2023/06/01 02:54:15;;;;;;;;;;;;;;;18.54;56.21;100537.31;5379529;32;34078;-76
2023/06/01 02:57:17;;;;;;;;;;;;;;;19.02;55.08;100542.00;5365510;32;34580;-72
2023/06/01 03:00:19;;;;;;;;;;;;;;;19.25;53.98;100537.66;5369135;32;34609;-76
2023/06/01 03:03:22;;;;;;;;;;;;;;;19.43;52.64;100537.16;5365867;32;34405;-73
2023/06/01 03:06:25;;;;;;;;;;;;;;;18.75;54.74;100550.16;5387638;32;33797;-71
2023/06/01 03:09:27;;;;;;;;;;;;;;;19.48;52.88;100542.16;5379294;32;34147;-74
2023/06/01 03:12:29;;;;;;;;;;;;;;;18.60;55.03;100549.37;5385093;32;34182;-77
2023/06/01 03:15:31;;;;;;;;;;;;;;;19.15;53.26;100537.50;5367886;32;34751;-76
2023/06/01 03:18:35;;;;;;;;;;;;;;;19.92;50.60;100535.37;5377414;32;33904;-72
2023/06/01 03:21:40;;;;;;;;;;;;;;;18.76;53.72;100547.38;5389594;32;36609;-73
2023/06/01 03:24:42;;;;;;;;;;;;;;;18.08;56.26;100537.00;5383519;32;33544;-76
2023/06/01 03:27:44;;;;;;;;;;;;;;;18.24;55.98;100542.13;5377634;32;33411;-74
2023/06/01 03:30:46;;;;;;;;;;;;;;;18.94;53.88;100538.09;5381309;32;33130;-73
2023/06/01 03:33:48;;;;;;;;;;;;;;;19.41;52.00;100532.94;5387285;32;33239;-73
2023/06/01 03:36:52;;;;;;;;;;;;;;;18.80;53.79;100535.53;5368148;32;33564;-76
2023/06/01 03:39:54;;;;;;;;;;;;;;;19.30;52.55;100531.03;5366237;32;34270;-73
2023/06/01 03:42:56;;;;;;;;;;;;;;;20.08;50.47;100532.37;5377701;32;33607;-74
2023/06/01 03:45:58;;;;;;;;;;;;;;;19.66;51.36;100532.00;5368837;32;33831;-74
2023/06/01 03:49:00;;;;;;;;;;;;;;;19.98;50.58;100525.09;5389573;32;33723;-73
2023/06/01 03:52:03;;;;;;;;;;;;;;;19.08;53.32;100522.91;5380544;32;33717;-77
2023/06/01 03:55:08;;;;;;;;;;;;;;;18.97;53.83;100522.84;5372194;32;32918;-73
2023/06/01 03:58:10;;;;;;;;;;;;;;;18.58;54.90;100532.66;5380188;32;33257;-77
2023/06/01 04:01:16;;;;;;;;;;;;;;;18.51;55.49;100536.72;5387311;32;34608;-77
2023/06/01 04:04:20;;;;;;;;;;;;;;;19.68;52.19;100525.56;5389395;32;35771;-73
2023/06/01 04:07:22;;;;;;;;;;;;;;;19.66;52.34;100532.00;5373576;32;35462;-75
2023/06/01 04:10:24;;;;;;;;;;;;;;;19.21;54.03;100531.72;5391895;32;33214;-74
2023/06/01 04:13:26;;;;;;;;;;;;;;;19.17;54.19;100531.06;5367499;32;32653;-74
2023/06/01 04:16:31;;;;;;;;;;;;;;;18.70;55.38;100526.50;5386491;32;33401;-73
2023/06/01 04:19:34;;;;;;;;;;;;;;;19.73;52.55;100523.41;5383081;32;33516;-77
2023/06/01 04:22:36;;;;;;;;;;;;;;;19.66;52.55;100532.84;5369032;32;33957;-76
2023/06/01 04:25:40;;;;;;;;;;;;;;;19.92;52.04;100528.22;5397000;32;34486;-76
2023/06/01 04:28:45;;;;;;;;;;;;;;;18.96;54.22;100535.31;5367274;32;45239;-77
2023/06/01 04:31:47;;;;;;;;;;;;;;;18.64;55.59;100535.75;5376522;32;33356;-74
2023/06/01 04:34:50;;;;;;;;;;;;;;;19.85;51.94;100532.31;5382776;32;33455;-77
2023/06/01 04:37:56;;;;;;;;;;;;;;;20.67;49.99;100525.06;5382094;32;33479;-74
2023/06/01 04:40:58;;;;;;;;;;;;;;;20.65;50.01;100535.03;5374633;32;35142;-73
2023/06/01 04:44:00;;;;;;;;;;;;;;;21.34;47.66;100524.19;5384056;32;34214;-73
2023/06/01 04:47:03;;;;;;;;;;;;;;;21.01;47.85;100533.94;5387920;32;33769;-77
2023/06/01 04:50:06;;;;;;;;;;;;;;;21.05;47.62;100534.53;5383203;32;33426;-73
2023/06/01 04:53:08;;;;;;;;;;;;;;;21.74;46.39;100536.94;5389060;32;33472;-76
2023/06/01 04:56:10;;;;;;;;;;;;;;;22.27;43.73;100534.25;5365901;32;33805;-74
2023/06/01 04:59:12;;;;;;;;;;;;;;;22.71;42.67;100533.94;5378661;32;34672;-77
2023/06/01 05:02:15;;;;;;;;;;;;;;;22.28;43.72;100535.94;5378496;32;33952;-77
2023/06/01 05:05:17;;;;;;;;;;;;;;;24.01;39.62;100527.56;5368356;32;32798;-73
2023/06/01 05:08:19;;;;;;;;;;;;;;;24.32;38.71;100524.69;5389949;32;33803;-74
2023/06/01 05:11:21;;;;;;;;;;;;;;;23.43;40.16;100529.38;5381663;32;33866;-77
2023/06/01 05:14:23;;;;;;;;;;;;;;;24.46;38.30;100523.41;5375603;32;33882;-77
2023/06/01 05:17:25;;;;;;;;;;;;;;;24.90;37.70;100526.38;5368161;32;34438;-77
2023/06/01 05:20:27;;;;;;;;;;;;;;;25.11;37.47;100521.59;5368703;32;32806;-77
2023/06/01 05:23:29;;;;;;;;;;;;;;;25.16;36.81;100531.91;5374087;32;33895;-73
2023/06/01 05:26:31;;;;;;;;;;;;;;;25.95;35.27;100531.22;5374399;32;33887;-74
2023/06/01 05:29:33;;;;;;;;;;;;;;;27.32;33.12;100527.66;5379760;32;33805;-74
2023/06/01 05:32:36;;;;;;;;;;;;;;;27.51;32.44;100530.06;5373802;32;33604;-77
2023/06/01 05:35:38;;;;;;;;;;;;;;;24.64;36.48;100535.09;5388572;32;34690;-75
2023/06/01 05:38:40;;;;;;;;;;;;;;;26.19;34.27;100528.72;5374187;32;32107;-77
2023/06/01 05:41:42;;;;;;;;;;;;;;;27.38;32.10;100518.06;5361546;32;34336;-76
2023/06/01 05:44:44;;;;;;;;;;;;;;;26.76;33.37;100521.00;5367393;32;35872;-77
2023/06/01 05:47:49;;;;;;;;;;;;;;;25.72;35.25;100520.91;5367735;32;34289;-81
2023/06/01 05:50:51;;;;;;;;;;;;;;;25.25;35.91;100520.28;5397751;32;36675;-68
2023/06/01 05:53:53;;;;;;;;;;;;;;;25.75;34.87;100528.69;5373898;32;34563;-66
2023/06/01 05:56:56;;;;;;;;;;;;;;;26.68;33.43;100526.38;5390546;32;34368;-78
2023/06/01 05:59:58;;;;;;;;;;;;;;;27.40;32.20;100510.63;5383044;32;33100;-66
2023/06/01 06:03:00;;;;;;;;;;;;;;;27.27;31.78;100511.09;5374177;32;32924;-71
2023/06/01 06:06:02;;;;;;;;;;;;;;;27.29;30.40;100519.03;5382727;32;33403;-69
2023/06/01 06:09:04;;;;;;;;;;;;;;;27.78;29.86;100517.28;5382618;32;33090;-75
2023/06/01 06:12:07;;;;;;;;;;;;;;;28.38;28.32;100521.50;5362286;32;34273;-75
2023/06/01 06:15:09;;;;;;;;;;;;;;;28.04;29.22;100517.97;5363638;32;32856;-68
2023/06/01 06:18:11;;;;;;;;;;;;;;;28.25;28.06;100524.69;5397852;32;44595;-76
2023/06/01 06:21:13;;;;;;;;;;;;;;;29.66;26.20;100523.81;5389443;32;33121;-73
2023/06/01 06:24:20;;;;;;;;;;;;;;;29.89;25.12;100517.56;5372029;32;33370;-68
2023/06/01 06:27:22;;;;;;;;;;;;;;;30.14;24.73;100515.47;5375805;32;34005;-75
2023/06/01 06:30:25;;;;;;;;;;;;;;;29.34;25.43;100518.59;5369977;32;33371;-76
2023/06/01 06:33:27;;;;;;;;;;;;;;;30.88;22.85;100515.56;5362786;32;35249;-74
2023/06/01 06:36:30;;;;;;;;;;;;;;;31.02;22.40;100510.09;5369940;32;33956;-76
2023/06/01 06:39:33;;;;;;;;;;;;;;;31.13;22.73;100514.22;5388057;32;33046;-75
2023/06/01 06:42:37;;;;;;;;;;;;;;;30.03;23.08;100505.91;5371523;32;32225;-80
2023/06/01 06:45:39;;;;;;;;;;;;;;;30.53;22.72;100507.13;5363644;32;34602;-78
2023/06/01 06:48:44;;;;;;;;;;;;;;;30.08;23.38;100503.50;5377027;32;45302;-75
2023/06/01 06:51:46;;;;;;;;;;;;;;;29.55;23.87;100507.16;5370799;32;33320;-70
2023/06/01 06:54:48;;;;;;;;;;;;;;;29.22;24.37;100511.91;5388742;32;33949;-76
2023/06/01 06:57:51;;;;;;;;;;;;;;;31.10;22.68;100503.72;5391458;32;34367;-71
2023/06/01 07:00:56;;;;;;;;;;;;;;;29.38;23.89;100501.81;5375148;32;33410;-76
2023/06/01 07:03:58;;;;;;;;;;;;;;;31.89;21.17;100497.50;5384492;32;33915;-72
2023/06/01 07:07:03;;;;;;;;;;;;;;;31.32;21.83;100509.22;5386247;32;34178;-74
2023/06/01 07:10:07;;;;;;;;;;;;;;;31.09;22.14;100499.31;5375920;32;34197;-71
2023/06/01 07:13:10;;;;;;;;;;;;;;;32.91;19.55;100492.31;5386342;32;33265;-73
2023/06/01 07:16:12;;;;;;;;;;;;;;;32.64;19.87;100496.78;5366770;32;43875;-72
2023/06/01 07:19:15;;;;;;;;;;;;;;;32.85;19.47;100491.25;5379849;32;36353;-73
2023/06/01 07:22:17;;;;;;;;;;;;;;;31.47;21.08;100488.28;5371046;32;33865;-75
2023/06/01 07:25:19;;;;;;;;;;;;;;;33.76;18.75;100488.16;5378756;32;33553;-72
2023/06/01 07:28:26;;;;;;;;;;;;;;;33.39;18.82;100495.03;5363388;32;34136;-75
2023/06/01 07:31:29;;;;;;;;;;;;;;;34.47;17.53;100487.53;5377701;32;33781;-74
2023/06/01 07:34:33;;;;;;;;;;;;;;;33.64;18.32;100484.37;5384912;32;31700;-73
2023/06/01 07:37:35;;;;;;;;;;;;;;;32.61;20.44;100495.31;5382776;32;33554;-73
2023/06/01 07:40:37;;;;;;;;;;;;;;;31.32;21.29;100491.06;5391086;32;33802;-73
2023/06/01 07:43:40;;;;;;;;;;;;;;;33.23;19.21;100490.75;5361243;32;36440;-73
2023/06/01 07:46:42;;;;;;;;;;;;;;;33.93;18.35;100477.69;5393822;32;32905;-74
2023/06/01 07:49:45;;;;;;;;;;;;;;;35.34;17.11;100486.09;5394767;32;36980;-73
2023/06/01 07:52:52;;;;;;;;;;;;;;;34.35;17.88;100476.41;5388471;32;33075;-74
2023/06/01 07:55:55;;;;;;;;;;;;;;;32.79;19.78;100483.88;5391290;32;33686;-72
2023/06/01 07:58:57;;;;;;;;;;;;;;;33.45;19.00;100477.03;5392290;32;33052;-72
2023/06/01 08:02:00;;;;;;;;;;;;;;;35.48;16.81;100473.22;5392064;32;33871;-71
2023/06/01 08:05:03;;;;;;;;;;;;;;;33.95;18.70;100470.16;5372031;32;33596;-72
2023/06/01 08:08:05;;;;;;;;;;;;;;;31.83;20.80;100477.37;5397689;32;34019;-73
2023/06/01 08:11:09;;;;;;;;;;;;;;;32.45;20.15;100473.84;5383238;32;33741;-73
2023/06/01 08:14:12;;;;;;;;;;;;;;;34.18;18.15;100469.69;5378472;32;44391;-73
2023/06/01 08:17:14;;;;;;;;;;;;;;;33.82;18.46;100461.97;5368821;32;34181;-73
2023/06/01 08:20:21;;;;;;;;;;;;;;;32.74;20.19;100461.03;5380402;32;34422;-72
2023/06/01 08:23:23;;;;;;;;;;;;;;;34.64;18.01;100466.88;5388665;32;32969;-71
2023/06/01 08:26:25;;;;;;;;;;;;;;;33.51;19.11;100459.84;5370663;32;32941;-74
2023/06/01 08:29:28;;;;;;;;;;;;;;;34.14;18.69;100458.41;5395521;32;32896;-72
2023/06/01 08:32:43;;;;;;;;;;;;;;;34.73;17.47;100457.41;5388143;32;44504;-73
2023/06/01 08:35:46;;;;;;;;;;;;;;;32.91;19.37;100467.81;5393249;32;34392;-72
2023/06/01 08:38:48;;;;;;;;;;;;;;;34.97;17.48;100460.47;5390138;32;32892;-75
2023/06/01 08:41:53;;;;;;;;;;;;;;;35.81;17.01;100448.38;5377847;32;33095;-73
2023/06/01 08:44:55;;;;;;;;;;;;;;;35.05;17.29;100464.88;5395109;32;33129;-78
2023/06/01 08:47:58;;;;;;;;;;;;;;;33.22;18.18;100459.12;5387799;32;33127;-83
2023/06/01 08:51:00;;;;;;;;;;;;;;;35.16;16.49;100466.88;5398101;32;33090;-68
2023/06/01 08:54:03;;;;;;;;;;;;;;;35.99;15.46;100453.91;5376130;32;33180;-76
2023/06/01 08:57:07;;;;;;;;;;;;;;;33.68;18.08;100455.66;5389495;32;34479;-75
2023/06/01 09:00:13;;;;;;;;;;;;;;;33.50;17.89;100452.72;5377176;32;36705;-74
2023/06/01 09:03:17;;;;;;;;;;;;;;;36.58;15.23;100447.00;5384713;32;33753;-72
2023/06/01 09:06:23;;;;;;;;;;;;;;;35.13;16.60;100453.69;5375961;32;32948;-72
2023/06/01 09:09:25;;;;;;;;;;;;;;;36.25;15.26;100439.12;5367571;32;34394;-76
2023/06/01 09:12:30;;;;;;;;;;;;;;;36.11;15.24;100444.97;5377915;32;33518;-86
2023/06/01 09:15:32;;;;;;;;;;;;;;;35.07;16.41;100440.91;5357430;32;33335;-78
2023/06/01 09:18:35;;;;;;;;;;;;;;;35.93;15.58;100434.81;5381760;32;33158;-72
2023/06/01 09:21:37;;;;;;;;;;;;;;;35.83;15.43;100432.59;5383229;32;34201;-77
2023/06/01 09:24:43;;;;;;;;;;;;;;;34.72;17.04;100438.53;5375305;32;36132;-79
2023/06/01 09:27:45;;;;;;;;;;;;;;;34.73;16.85;100426.56;5392563;32;45522;-83
2023/06/01 09:30:47;;;;;;;;;;;;;;;34.41;17.71;100429.16;5390206;32;34275;-76
2023/06/01 09:33:58;;;;;;;;;;;;;;;35.11;17.40;100429.31;5392930;32;33479;-75
2023/06/01 09:37:05;;;;;;;;;;;;;;;36.58;15.79;100430.56;5376836;32;34619;-77
2023/06/01 09:40:17;;;;;;;;;;;;;;;34.33;18.32;100429.41;5375221;32;35152;-71
2023/06/01 09:43:21;;;;;;;;;;;;;;;36.59;15.71;100429.50;5398610;32;36490;-79
2023/06/01 09:46:23;;;;;;;;;;;;;;;33.47;18.85;100426.72;5369374;32;34097;-73
2023/06/01 09:49:28;;;;;;;;;;;;;;;35.36;17.37;100414.84;5392939;32;33690;-74
2023/06/01 09:52:31;;;;;;;;;;;;;;;36.07;16.38;100415.34;5387130;32;33606;-80
2023/06/01 09:55:33;;;;;;;;;;;;;;;35.40;16.60;100424.28;5385383;32;34456;-76
2023/06/01 09:58:39;;;;;;;;;;;;;;;34.88;17.60;100423.53;5375031;32;33830;-79
2023/06/01 10:01:42;;;;;;;;;;;;;;;35.96;16.49;100413.34;5382822;32;46084;-71
2023/06/01 10:04:54;;;;;;;;;;;;;;;37.27;15.46;100414.66;5395926;32;34392;-73
2023/06/01 10:07:56;;;;;;;;;;;;;;;35.49;16.76;100412.06;5389489;32;33088;-71
2023/06/01 10:11:00;;;;;;;;;;;;;;;36.49;16.15;100407.31;5396963;32;34244;-72
2023/06/01 10:14:05;;;;;;;;;;;;;;;37.63;15.14;100402.72;5388704;32;32753;-71
2023/06/01 10:17:07;;;;;;;;;;;;;;;34.51;18.05;100409.63;5388664;32;34266;-78
2023/06/01 10:20:11;;;;;;;;;;;;;;;36.27;16.50;100392.41;5381439;32;32893;-78
2023/06/01 10:23:13;;;;;;;;;;;;;;;36.68;16.19;100393.59;5384329;32;44615;-78
2023/06/01 10:26:20;;;;;;;;;;;;;;;38.98;14.30;100387.84;5388653;32;34406;-75
2023/06/01 10:29:22;;;;;;;;;;;;;;;36.02;17.21;100389.72;5371483;32;32499;-73
2023/06/01 10:32:37;;;;;;;;;;;;;;;36.79;16.31;100390.06;5379107;32;33085;-72
2023/06/01 10:35:42;;;;;;;;;;;;;;;36.22;16.93;100375.81;5368925;32;33167;-79
2023/06/01 10:38:44;;;;;;;;;;;;;;;37.34;15.77;100376.22;5382424;32;45471;-76
2023/06/01 10:41:46;;;;;;;;;;;;;;;37.36;15.95;100368.63;5392063;32;33096;-81
2023/06/01 10:44:48;;;;;;;;;;;;;;;40.31;13.33;100362.41;5383802;32;33398;-84
2023/06/01 10:47:53;;;;;;;;;;;;;;;39.97;13.42;100356.19;5370072;32;33013;-78
2023/06/01 10:51:14;;;;;;;;;;;;;;;34.93;18.29;100369.97;5388072;32;32948;-75
2023/06/01 10:54:29;;;;;;;;;;;;;;;38.11;15.17;100363.25;5385273;32;45090;-73
2023/06/01 10:57:38;;;;;;;;;;;;;;;38.21;15.12;100366.22;5394324;32;34843;-82
2023/06/01 11:00:41;;;;;;;;;;;;;;;37.91;15.32;100351.84;5374657;32;45043;-72
2023/06/01 11:03:44;;;;;;;;;;;;;;;37.93;14.99;100349.66;5386154;32;34695;-71
2023/06/01 11:06:48;;;;;;;;;;;;;;;39.17;14.09;100333.50;5367087;32;33295;-81
2023/06/01 11:09:51;;;;;;;;;;;;;;;38.20;14.95;100339.84;5393043;32;33803;-78
2023/06/01 11:13:12;;;;;;;;;;;;;;;39.25;14.39;100337.75;5391500;32;35814;-81
2023/06/01 11:16:18;;;;;;;;;;;;;;;39.46;13.99;100330.66;5379378;32;45742;-76
2023/06/01 11:19:24;;;;;;;;;;;;;;;37.59;15.51;100335.72;5397273;32;33100;-78
2023/06/01 11:22:28;;;;;;;;;;;;;;;37.35;15.91;100339.53;5371299;32;36114;-77
2023/06/01 11:25:32;;;;;;;;;;;;;;;35.87;17.47;100326.31;5379233;32;33300;-71
2023/06/01 11:28:35;;;;;;;;;;;;;;;38.03;15.02;100314.25;5382533;32;34419;-72
2023/06/01 11:31:47;;;;;;;;;;;;;;;37.00;16.03;100312.06;5382993;32;34117;-75
2023/06/01 11:34:51;;;;;;;;;;;;;;;38.28;15.15;100318.63;5389560;32;47028;-78
2023/06/01 11:37:54;;;;;;;;;;;;;;;38.34;14.99;100320.41;5383616;32;33235;-78
2023/06/01 11:41:01;;;;;;;;;;;;;;;35.31;17.78;100308.97;5379187;32;33907;-81
2023/06/01 11:44:03;;;;;;;;;;;;;;;37.74;15.27;100307.81;5381967;32;34630;-82
2023/06/01 11:47:09;;;;;;;;;;;;;;;33.83;19.15;100308.25;5377037;32;33250;-75
2023/06/01 11:50:21;;;;;;;;;;;;;;;34.28;18.61;100305.63;5375376;32;48030;-74
2023/06/01 11:53:24;;;;;;;;;;;;;;;34.33;18.70;100300.31;5383073;32;33702;-77
2023/06/01 11:56:29;;;;;;;;;;;;;;;32.16;21.17;100309.06;5392258;32;33288;-76
2023/06/01 11:59:37;;;;;;;;;;;;;;;33.38;19.89;100299.94;5375888;32;35698;-76
2023/06/01 12:02:41;;;;;;;;;;;;;;;34.79;18.48;100283.72;5393309;32;32886;-80
2023/06/01 12:05:45;;;;;;;;;;;;;;;34.02;18.36;100288.31;5387981;32;46794;-79
2023/06/01 12:08:50;;;;;;;;;;;;;;;35.96;16.64;100283.97;5393800;32;33260;-84
2023/06/01 12:11:54;;;;;;;;;;;;;;;32.84;20.20;100285.41;5380091;32;34454;-77
2023/06/01 12:14:56;;;;;;;;;;;;;;;33.46;19.58;100274.37;5386886;32;33064;-73
2023/06/01 12:18:01;;;;;;;;;;;;;;;32.61;21.06;100271.37;5393336;32;34343;-80
2023/06/01 12:21:08;;;;;;;;;;;;;;;32.97;20.83;100270.16;5368954;32;33053;-72
2023/06/01 12:24:12;;;;;;;;;;;;;;;32.95;20.29;100261.37;5389550;32;44758;-80
2023/06/01 12:27:15;;;;;;;;;;;;;;;31.23;21.20;100264.13;5395080;32;33759;-77
2023/06/01 12:30:20;;;;;;;;;;;;;;;31.46;21.70;100263.91;5383419;32;32854;-76
2023/06/01 12:33:30;;;;;;;;;;;;;;;30.74;22.52;100260.38;5389891;32;34262;-84
2023/06/01 12:36:35;;;;;;;;;;;;;;;32.69;20.89;100252.12;5381893;32;33058;-79
2023/06/01 12:39:39;;;;;;;;;;;;;;;31.34;21.80;100252.75;5379323;32;33561;-74
2023/06/01 12:42:45;;;;;;;;;;;;;;;31.05;22.04;100242.91;5380093;32;42987;-82
2023/06/01 12:45:47;;;;;;;;;;;;;;;30.92;22.06;100242.81;5375226;32;32944;-73
2023/06/01 12:48:49;;;;;;;;;;;;;;;30.46;22.26;100244.00;5368921;32;33053;-74
2023/06/01 12:51:52;;;;;;;;;;;;;;;30.64;21.45;100240.00;5375445;32;34522;-76
2023/06/01 12:54:57;;;;;;;;;;;;;;;31.88;20.16;100238.50;5388480;32;33067;-73
2023/06/01 12:57:59;;;;;;;;;;;;;;;30.60;21.44;100231.44;5387579;32;33043;-72
2023/06/01 13:01:02;;;;;;;;;;;;;;;30.39;21.86;100236.81;5385814;32;33470;-71
2023/06/01 13:04:05;;;;;;;;;;;;;;;30.56;22.00;100230.13;5388657;32;32811;-71
2023/06/01 13:07:07;;;;;;;;;;;;;;;30.97;21.79;100224.88;5388090;32;33655;-75
2023/06/01 13:10:12;;;;;;;;;;;;;;;30.89;21.85;100206.03;5387496;32;44686;-74
2023/06/01 13:13:15;;;;;;;;;;;;;;;31.97;21.33;100211.97;5365625;32;32888;-73
2023/06/01 13:16:17;;;;;;;;;;;;;;;31.71;20.85;100199.91;5388138;32;33029;-77
2023/06/01 13:19:20;;;;;;;;;;;;;;;31.62;20.94;100208.41;5392782;32;35558;-71
2023/06/01 13:22:25;;;;;;;;;;;;;;;31.13;21.24;100203.94;5387616;32;33133;-76
2023/06/01 13:25:27;;;;;;;;;;;;;;;31.50;20.76;100208.16;5391263;32;33799;-70
2023/06/01 13:28:29;;;;;;;;;;;;;;;30.79;21.03;100199.28;5391117;32;33778;-76
2023/06/01 13:31:32;;;;;;;;;;;;;;;31.74;20.48;100204.09;5396451;32;33119;-75
2023/06/01 13:34:35;;;;;;;;;;;;;;;31.72;21.15;100195.31;5375188;32;32852;-72
2023/06/01 13:37:40;;;;;;;;;;;;;;;30.78;21.94;100193.00;5382243;32;33475;-80
2023/06/01 13:40:42;;;;;;;;;;;;;;;31.31;21.82;100181.75;5374604;32;44634;-76
2023/06/01 13:43:45;;;;;;;;;;;;;;;31.32;22.08;100186.97;5387778;32;33574;-76
2023/06/01 13:46:48;;;;;;;;;;;;;;;30.92;22.20;100166.84;5390991;32;33034;-71
2023/06/01 13:49:50;;;;;;;;;;;;;;;30.84;22.07;100175.09;5387370;32;33095;-72
2023/06/01 13:52:53;;;;;;;;;;;;;;;30.85;22.53;100174.94;5381617;32;33444;-76
2023/06/01 13:55:56;;;;;;;;;;;;;;;31.12;22.31;100165.09;5389818;32;33082;-72
2023/06/01 13:58:58;;;;;;;;;;;;;;;30.91;22.92;100160.53;5398095;32;33308;-73
2023/06/01 14:02:01;;;;;;;;;;;;;;;31.96;20.62;100158.66;5376873;32;32625;-70
2023/06/01 14:05:03;;;;;;;;;;;;;;;30.66;22.31;100154.72;5376882;32;32892;-66
2023/06/01 14:08:13;;;;;;;;;;;;;;;30.85;22.29;100153.22;5372134;32;46110;-69
2023/06/01 14:11:15;;;;;;;;;;;;;;;31.10;22.02;100145.44;5368455;32;33276;-72
2023/06/01 14:14:17;;;;;;;;;;;;;;;31.40;22.30;100137.09;5396312;32;32903;-71
2023/06/01 14:17:19;;;;;;;;;;;;;;;31.19;21.83;100138.81;5382985;32;33296;-71
2023/06/01 14:20:21;;;;;;;;;;;;;;;30.89;22.33;100130.06;5383834;32;33953;-76
2023/06/01 14:23:24;;;;;;;;;;;;;;;30.39;22.88;100129.22;5379462;32;33024;-78
2023/06/01 14:26:26;;;;;;;;;;;;;;;30.26;23.43;100128.25;5379576;32;35122;-77
2023/06/01 14:29:29;;;;;;;;;;;;;;;30.80;23.49;100123.13;5396434;32;33152;-77
2023/06/01 14:32:31;;;;;;;;;;;;;;;30.37;23.16;100120.44;5382166;32;33599;-78
2023/06/01 14:35:33;;;;;;;;;;;;;;;30.60;23.32;100120.22;5386055;32;33637;-79
2023/06/01 14:38:35;;;;;;;;;;;;;;;30.22;23.49;100110.72;5369262;32;33485;-78
2023/06/01 14:41:38;;;;;;;;;;;;;;;30.77;23.08;100117.25;5390097;32;33876;-78
2023/06/01 14:44:43;;;;;;;;;;;;;;;29.65;24.64;100115.06;5376374;32;44849;-78
2023/06/01 14:48:02;;;;;;;;;;;;;;;30.49;23.76;100112.63;5381011;32;33928;-74
2023/06/01 14:51:04;;;;;;;;;;;;;;;28.94;25.32;100114.72;5390715;32;33699;-76
2023/06/01 14:54:06;;;;;;;;;;;;;;;30.23;24.09;100113.22;5380581;32;33237;-73
2023/06/01 14:57:08;;;;;;;;;;;;;;;29.64;25.05;100100.69;5376638;32;33582;-73
2023/06/01 15:00:11;;;;;;;;;;;;;;;30.23;25.14;100101.56;5381884;32;44911;-75
2023/06/01 15:03:12;;;;;;;;;;;;;;;30.62;24.42;100099.16;5383953;32;33996;-75
2023/06/01 15:06:15;;;;;;;;;;;;;;;30.25;24.85;100097.59;5385849;32;33667;-75
2023/06/01 15:09:17;;;;;;;;;;;;;;;30.43;24.86;100097.13;5364904;32;33530;-73
2023/06/01 15:12:19;;;;;;;;;;;;;;;29.97;25.40;100086.69;5378003;32;34375;-73
2023/06/01 15:15:22;;;;;;;;;;;;;;;30.57;24.83;100084.50;5382754;32;34505;-73
2023/06/01 15:18:24;;;;;;;;;;;;;;;30.42;25.50;100084.63;5391250;32;33169;-74
2023/06/01 15:21:26;;;;;;;;;;;;;;;29.85;26.00;100089.06;5369586;32;33566;-73
2023/06/01 15:24:28;;;;;;;;;;;;;;;30.13;25.54;100088.31;5397898;32;34351;-75
2023/06/01 15:27:30;;;;;;;;;;;;;;;30.41;24.98;100080.22;5389316;32;33468;-72
2023/06/01 15:30:33;;;;;;;;;;;;;;;29.37;26.46;100080.56;5384534;32;34410;-75
2023/06/01 15:33:35;;;;;;;;;;;;;;;30.41;25.15;100077.53;5380077;32;35947;-74
2023/06/01 15:36:38;;;;;;;;;;;;;;;30.25;25.59;100070.50;5371602;32;33476;-74
2023/06/01 15:39:40;;;;;;;;;;;;;;;30.17;26.07;100066.06;5401340;32;45277;-73
2023/06/01 15:42:42;;;;;;;;;;;;;;;30.12;25.93;100060.38;5388592;32;43182;-74